Time;durP1;ratioP1;P1;durP2;ratioP2;P2;SDS_P1;SDS_P2;PMS_P1;PMS_P2;Temp;Humidity;BMP_temperature;BMP_pressure;BME280_temperature;BME280_humidity;BME280_pressure;Samples;Min_cycle;Max_cycle;Signal;HPM_P1;HPM_P2
2023/12/10 00:00:32;;;;;;;63.60;38.50;;;;;;;-0.41;99.09;99461.06;103486;1253;138481;-76
2023/12/10 00:03:20;;;;;;;64.60;37.10;;;;;;;-0.39;99.16;99458.84;102808;1253;1002962;-76
2023/12/10 00:05:47;;;;;;;62.30;36.30;;;;;;;-0.38;99.08;99453.71;102810;1253;1002906;-77
2023/12/10 00:08:25;;;;;;;64.70;38.90;;;;;;;-0.34;98.81;99460.92;102696;1252;1002871;-77
2023/12/10 00:10:55;;;;;;;65.60;41.30;;;;;;;-0.32;98.91;99457.48;103492;1255;106919;-76
2023/12/10 00:13:22;;;;;;;68.00;42.50;;;;;;;-0.31;98.73;99453.90;102651;1255;1003233;-76
2023/12/10 00:15:50;;;;;;;65.00;38.90;;;;;;;-0.33;98.69;99450.66;103446;1253;107283;-77
2023/12/10 00:18:20;;;;;;;67.90;39.90;;;;;;;-0.33;98.72;99454.94;102709;1253;1003119;-75
2023/12/10 00:20:47;;;;;;;64.90;39.40;;;;;;;-0.33;98.57;99448.45;103558;1253;110003;-75
2023/12/10 00:23:14;;;;;;;62.40;38.10;;;;;;;-0.34;98.62;99443.32;103531;1253;107006;-76
2023/12/10 00:25:45;;;;;;;69.90;40.70;;;;;;;-0.33;98.72;99440.75;102730;1255;1003169;-76
2023/12/10 00:28:13;;;;;;;69.10;41.80;;;;;;;-0.30;98.52;99439.20;103495;1256;107824;-75
2023/12/10 00:30:41;;;;;;;68.60;42.80;;;;;;;-0.28;98.56;99441.60;102616;1251;1003076;-76
2023/12/10 00:33:09;;;;;;;77.00;44.30;;;;;;;-0.28;98.45;99432.72;103496;1253;109927;-77
2023/12/10 00:35:36;;;;;;;70.70;41.00;;;;;;;-0.31;98.54;99425.04;103373;1253;107913;-75
2023/12/10 00:38:03;;;;;;;68.00;40.20;;;;;;;-0.31;98.45;99429.48;103532;1251;138239;-76
2023/12/10 00:40:30;;;;;;;66.20;39.30;;;;;;;-0.30;98.75;99436.14;103498;1251;107334;-76
2023/12/10 00:42:58;;;;;;;66.00;39.40;;;;;;;-0.28;98.71;99433.40;103348;1256;138305;-75
2023/12/10 00:45:25;;;;;;;67.10;40.00;;;;;;;-0.24;98.80;99439.02;103557;1252;109897;-76
2023/12/10 00:47:52;;;;;;;72.50;42.40;;;;;;;-0.20;98.72;99444.48;103510;1254;107745;-76
2023/12/10 00:50:19;;;;;;;69.40;43.00;;;;;;;-0.18;98.64;99444.32;102645;1255;1003448;-77
2023/12/10 00:52:46;;;;;;;72.20;43.50;;;;;;;-0.15;98.56;99436.80;103465;1255;109602;-76
2023/12/10 00:55:13;;;;;;;72.70;44.70;;;;;;;-0.13;98.54;99447.05;103366;1255;137454;-77
2023/12/10 00:57:40;;;;;;;73.30;42.80;;;;;;;-0.14;98.46;99448.93;103872;1251;109162;-76
2023/12/10 01:00:09;;;;;;;68.30;40.60;;;;;;;-0.12;98.46;99453.53;102881;1255;1002870;-76
2023/12/10 01:02:39;;;;;;;69.90;40.80;;;;;;;-0.09;98.37;99455.40;103709;1255;96444;-75
2023/12/10 01:05:07;;;;;;;65.70;40.70;;;;;;;-0.05;98.50;99458.13;103572;1251;108171;-76
2023/12/10 01:07:34;;;;;;;63.80;38.30;;;;;;;-0.02;98.36;99456.40;103445;1256;138267;-77
2023/12/10 01:10:04;;;;;;;64.10;38.50;;;;;;;0.01;98.36;99446.67;103560;1253;109616;-75
2023/12/10 01:12:33;;;;;;;74.00;42.60;;;;;;;0.07;98.37;99447.51;104068;1255;138279;-78
2023/12/10 01:14:59;;;;;;;69.70;42.70;;;;;;;0.10;98.22;99447.67;103612;1255;94751;-77
2023/12/10 01:17:26;;;;;;;75.40;45.80;;;;;;;0.14;98.19;99452.60;103864;1255;107706;-77
2023/12/10 01:19:53;;;;;;;75.20;45.90;;;;;;;0.13;97.87;99453.46;103088;1255;1002892;-77
2023/12/10 01:22:20;;;;;;;74.80;43.90;;;;;;;0.11;97.80;99452.61;103595;1253;109611;-77
2023/12/10 01:24:48;;;;;;;70.70;42.60;;;;;;;0.09;97.75;99451.95;103866;1255;138128;-77
2023/12/10 01:27:15;;;;;;;71.00;41.70;;;;;;;0.07;97.54;99445.63;102759;1251;1003665;-77
2023/12/10 01:29:42;;;;;;;72.00;42.60;;;;;;;0.06;97.71;99444.61;102799;1255;1002770;-76
2023/12/10 01:32:10;;;;;;;69.40;41.20;;;;;;;0.05;97.68;99438.11;103020;1254;1003355;-77
2023/12/10 01:34:37;;;;;;;68.90;39.50;;;;;;;0.05;97.72;99434.36;103557;1251;108989;-77
2023/12/10 01:37:04;;;;;;;66.80;39.50;;;;;;;0.03;97.57;99435.05;103378;1253;138098;-76
2023/12/10 01:39:31;;;;;;;63.50;39.70;;;;;;;0.06;97.68;99427.35;103499;1255;96837;-77
2023/12/10 01:41:58;;;;;;;69.40;41.50;;;;;;;0.05;97.50;99434.02;102712;1253;1002923;-77
2023/12/10 01:44:28;;;;;;;71.80;43.70;;;;;;;0.02;97.38;99438.98;102694;1253;1003390;-76
2023/12/10 01:46:55;;;;;;;72.00;43.90;;;;;;;-0.01;97.38;99443.41;103480;1255;108314;-77
2023/12/10 01:49:23;;;;;;;68.10;40.20;;;;;;;-0.05;97.52;99451.80;103414;1256;141692;-77
2023/12/10 01:51:52;;;;;;;64.30;38.20;;;;;;;-0.09;97.54;99452.66;103536;1255;96432;-76
2023/12/10 01:54:25;;;;;;;65.10;38.60;;;;;;;-0.13;97.76;99448.92;103449;1250;139832;-76
2023/12/10 01:56:52;;;;;;;64.60;36.50;;;;;;;-0.17;97.85;99455.42;103570;1251;96685;-77
2023/12/10 01:59:32;;;;;;;63.80;38.70;;;;;;;-0.19;97.86;99453.88;102734;1250;1002633;-77
2023/12/10 02:01:59;;;;;;;65.00;38.40;;;;;;;-0.22;97.80;99459.17;103344;1255;136641;-77
2023/12/10 02:04:26;;;;;;;70.00;40.00;;;;;;;-0.26;97.54;99461.41;103539;1251;96547;-77
2023/12/10 02:06:53;;;;;;;62.90;36.40;;;;;;;-0.33;97.64;99471.50;102662;1251;1002865;-77
2023/12/10 02:09:20;;;;;;;61.30;36.40;;;;;;;-0.40;97.68;99466.02;103501;1253;96938;-76
2023/12/10 02:11:47;;;;;;;60.20;36.00;;;;;;;-0.44;97.85;99464.50;102847;1257;1003795;-77
2023/12/10 02:14:14;;;;;;;60.40;33.80;;;;;;;-0.46;98.03;99462.95;103424;1255;138461;-77
2023/12/10 02:16:41;;;;;;;56.50;33.60;;;;;;;-0.47;98.14;99457.84;103440;1253;96961;-76
2023/12/10 02:19:07;;;;;;;60.20;35.80;;;;;;;-0.47;98.03;99454.77;103426;1251;138105;-76
2023/12/10 02:21:38;;;;;;;58.70;36.00;;;;;;;-0.48;97.90;99451.35;102797;1255;1002663;-75
2023/12/10 02:24:06;;;;;;;65.00;38.50;;;;;;;-0.51;97.90;99449.15;103635;1255;110749;-76
2023/12/10 02:26:33;;;;;;;60.30;35.50;;;;;;;-0.56;97.99;99451.67;102916;1251;1002906;-76
2023/12/10 02:29:01;;;;;;;59.70;33.70;;;;;;;-0.59;98.06;99445.54;103564;1251;96544;-77
2023/12/10 02:31:28;;;;;;;60.30;34.50;;;;;;;-0.61;98.03;99445.03;103388;1256;138733;-77
2023/12/10 02:33:55;;;;;;;58.20;32.90;;;;;;;-0.61;98.20;99449.81;103526;1251;96627;-78
2023/12/10 02:36:22;;;;;;;57.50;34.00;;;;;;;-0.61;98.19;99437.86;103774;1251;139229;-77
2023/12/10 02:38:50;;;;;;;53.00;32.50;;;;;;;-0.59;98.02;99443.83;103720;1255;106646;-77
2023/12/10 02:41:16;;;;;;;60.40;35.70;;;;;;;-0.59;97.90;99432.56;102852;1251;1003532;-77
2023/12/10 02:43:43;;;;;;;66.90;38.10;;;;;;;-0.60;97.83;99433.08;103376;1256;137611;-77
2023/12/10 02:46:10;;;;;;;59.00;34.40;;;;;;;-0.64;97.79;99428.64;103551;1251;96563;-76
2023/12/10 02:48:37;;;;;;;54.20;31.90;;;;;;;-0.65;97.61;99420.45;103306;1257;139312;-76
2023/12/10 02:51:05;;;;;;;58.40;33.60;;;;;;;-0.65;97.56;99408.67;103543;1251;106757;-76
2023/12/10 02:53:32;;;;;;;58.00;34.00;;;;;;;-0.65;97.53;99405.94;103587;1257;96438;-76
2023/12/10 02:55:58;;;;;;;57.00;32.30;;;;;;;-0.64;97.55;99404.23;102657;1251;1003347;-76
2023/12/10 02:58:25;;;;;;;51.90;31.30;;;;;;;-0.63;97.38;99398.77;103583;1255;96450;-77
2023/12/10 03:01:28;;;;;;;54.60;31.60;;;;;;;-0.60;97.44;99392.10;103564;1248;138209;-83
2023/12/10 03:04:07;;;;;;;56.40;32.20;;;;;;;-0.56;97.30;99390.21;102157;1260;1002864;-77
2023/12/10 03:06:34;;;;;;;50.00;30.90;;;;;;;-0.54;97.26;99386.12;102996;1256;138943;-77
2023/12/10 03:09:02;;;;;;;52.10;31.80;;;;;;;-0.52;97.05;99388.52;103132;1260;107082;-77
2023/12/10 03:11:29;;;;;;;52.00;31.30;;;;;;;-0.50;96.84;99391.08;102434;1255;1003146;-77
2023/12/10 03:13:55;;;;;;;57.40;33.30;;;;;;;-0.50;96.65;99396.55;102310;1258;1003312;-77
2023/12/10 03:16:22;;;;;;;58.50;32.50;;;;;;;-0.55;96.33;99393.28;103100;1262;106789;-76
2023/12/10 03:18:49;;;;;;;51.40;29.90;;;;;;;-0.58;96.48;99386.96;102981;1260;138333;-77
2023/12/10 03:21:16;;;;;;;50.60;28.40;;;;;;;-0.61;96.35;99388.69;103068;1260;106830;-77
2023/12/10 03:23:43;;;;;;;48.30;29.30;;;;;;;-0.60;96.49;99383.39;103175;1260;96447;-76
2023/12/10 03:26:10;;;;;;;48.90;28.30;;;;;;;-0.58;96.51;99380.15;103050;1262;138646;-77
2023/12/10 03:28:37;;;;;;;50.50;30.40;;;;;;;-0.56;96.43;99381.67;103156;1263;106307;-76
2023/12/10 03:31:04;;;;;;;50.50;30.60;;;;;;;-0.56;96.24;99382.36;102347;1256;1002543;-77
2023/12/10 03:33:31;;;;;;;52.70;30.70;;;;;;;-0.55;96.20;99381.84;103128;1263;108287;-76
2023/12/10 03:35:58;;;;;;;48.20;27.30;;;;;;;-0.60;95.99;99386.63;102416;1260;1003530;-77
2023/12/10 03:38:25;;;;;;;44.80;28.90;;;;;;;-0.61;95.90;99374.86;102307;1260;1140282;-77
2023/12/10 03:40:52;;;;;;;46.00;27.30;;;;;;;-0.62;95.94;99375.37;103123;1257;107051;-77
2023/12/10 03:43:19;;;;;;;45.30;27.00;;;;;;;-0.61;95.99;99359.15;102990;1257;138763;-77
2023/12/10 03:45:45;;;;;;;43.90;26.10;;;;;;;-0.61;95.86;99348.91;103128;1257;107399;-77
2023/12/10 03:48:12;;;;;;;43.20;26.50;;;;;;;-0.61;95.71;99340.88;103134;1261;96437;-76
2023/12/10 03:50:39;;;;;;;46.40;26.60;;;;;;;-0.58;95.69;99343.09;103035;1266;138492;-76
2023/12/10 03:53:06;;;;;;;44.60;27.80;;;;;;;-0.58;95.52;99348.22;103141;1257;107671;-76
2023/12/10 03:55:34;;;;;;;44.90;27.60;;;;;;;-0.58;95.46;99345.65;103100;1257;139223;-77
2023/12/10 03:58:01;;;;;;;48.70;29.20;;;;;;;-0.60;95.39;99353.52;103122;1260;107107;-76
2023/12/10 04:00:28;;;;;;;45.00;26.20;;;;;;;-0.66;95.25;99349.60;102968;1262;138691;-76
2023/12/10 04:02:55;;;;;;;42.10;25.60;;;;;;;-0.69;95.47;99352.17;103103;1257;111370;-77
2023/12/10 04:05:25;;;;;;;42.00;25.70;;;;;;;-0.70;95.66;99355.94;103161;1260;106914;-76
2023/12/10 04:07:53;;;;;;;40.70;24.90;;;;;;;-0.71;95.60;99359.17;103038;1259;138844;-76
2023/12/10 04:10:19;;;;;;;38.60;24.30;;;;;;;-0.70;95.71;99356.63;103189;1258;107676;-76
2023/12/10 04:12:46;;;;;;;43.50;26.50;;;;;;;-0.67;95.62;99356.95;103080;1257;138632;-75
2023/12/10 04:15:13;;;;;;;42.30;26.30;;;;;;;-0.64;95.53;99365.82;103165;1258;109072;-75
2023/12/10 04:17:42;;;;;;;44.20;27.00;;;;;;;-0.65;95.12;99368.55;103144;1257;107947;-77
2023/12/10 04:20:11;;;;;;;44.60;27.10;;;;;;;-0.69;95.27;99356.95;103072;1258;137734;-76
2023/12/10 04:22:39;;;;;;;42.50;26.30;;;;;;;-0.71;95.42;99360.38;103588;1258;108085;-75
2023/12/10 04:25:06;;;;;;;41.40;24.80;;;;;;;-0.70;95.38;99368.23;102299;1257;1003176;-76
2023/12/10 04:27:34;;;;;;;40.00;24.30;;;;;;;-0.71;95.28;99373.34;103200;1257;108936;-76
2023/12/10 04:30:01;;;;;;;38.40;23.70;;;;;;;-0.73;95.19;99375.38;103127;1257;107168;-75
2023/12/10 04:32:28;;;;;;;40.10;24.10;;;;;;;-0.72;95.30;99374.70;103090;1257;138142;-76
2023/12/10 04:34:55;;;;;;;40.50;23.90;;;;;;;-0.72;95.25;99370.45;103117;1260;108045;-75
2023/12/10 04:37:22;;;;;;;39.90;24.70;;;;;;;-0.71;95.08;99372.83;102136;1257;1003543;-76
2023/12/10 04:39:49;;;;;;;41.50;26.10;;;;;;;-0.71;95.14;99370.27;101699;1257;1003237;-76
2023/12/10 04:42:16;;;;;;;42.90;26.00;;;;;;;-0.72;94.93;99370.10;103181;1258;107652;-77
2023/12/10 04:44:43;;;;;;;41.80;25.50;;;;;;;-0.76;94.88;99366.67;103226;1260;96458;-75
2023/12/10 04:47:10;;;;;;;39.80;24.50;;;;;;;-0.79;94.93;99357.97;103191;1258;108470;-78
2023/12/10 04:49:37;;;;;;;39.70;23.70;;;;;;;-0.83;94.71;99370.95;103062;1257;138729;-78
2023/12/10 04:52:07;;;;;;;40.50;24.50;;;;;;;-0.87;94.56;99368.92;103153;1257;109090;-77
2023/12/10 04:54:34;;;;;;;40.60;24.40;;;;;;;-0.91;94.77;99358.84;103022;1258;139037;-77
2023/12/10 04:57:01;;;;;;;38.10;23.30;;;;;;;-0.90;94.79;99359.17;103166;1259;96312;-77
2023/12/10 04:59:27;;;;;;;40.30;23.50;;;;;;;-0.92;94.62;99360.19;103237;1258;107744;-78
2023/12/10 05:01:54;;;;;;;39.60;24.10;;;;;;;-0.94;94.62;99365.83;102306;1260;1002914;-76
2023/12/10 05:04:21;;;;;;;35.00;21.40;;;;;;;-0.97;94.24;99381.02;103131;1259;109864;-77
2023/12/10 05:06:51;;;;;;;33.90;21.70;;;;;;;-1.01;94.11;99369.92;103009;1257;138899;-76
2023/12/10 05:09:18;;;;;;;37.10;22.30;;;;;;;-1.01;94.41;99370.96;103220;1257;96678;-76
2023/12/10 05:11:45;;;;;;;35.70;22.50;;;;;;;-1.02;94.27;99370.27;102412;1257;1003190;-78
2023/12/10 05:14:12;;;;;;;35.70;21.80;;;;;;;-1.04;94.27;99365.83;103073;1260;138407;-77
2023/12/10 05:16:38;;;;;;;35.90;22.20;;;;;;;-1.02;94.39;99367.55;102262;1259;1003734;-76
2023/12/10 05:19:05;;;;;;;35.60;21.90;;;;;;;-1.01;94.55;99374.02;102236;1256;1003147;-76
2023/12/10 05:21:33;;;;;;;36.90;22.30;;;;;;;-0.99;94.48;99373.34;103162;1260;96988;-76
2023/12/10 05:24:00;;;;;;;36.30;21.50;;;;;;;-0.99;94.24;99377.10;103166;1257;106877;-76
2023/12/10 05:26:27;;;;;;;38.30;22.60;;;;;;;-1.00;94.29;99362.77;103009;1260;138603;-77
2023/12/10 05:28:54;;;;;;;36.80;22.60;;;;;;;-0.96;94.44;99368.90;103200;1255;109818;-77
2023/12/10 05:31:21;;;;;;;36.40;23.00;;;;;;;-0.96;94.23;99367.54;103019;1260;138446;-77
2023/12/10 05:33:48;;;;;;;37.90;21.90;;;;;;;-0.95;93.99;99371.12;103251;1260;96336;-78
2023/12/10 05:36:15;;;;;;;33.70;20.50;;;;;;;-0.98;93.67;99374.02;103145;1257;107121;-77
2023/12/10 05:38:42;;;;;;;35.80;21.10;;;;;;;-1.05;93.47;99372.66;103227;1259;96612;-76
2023/12/10 05:41:13;;;;;;;34.70;21.00;;;;;;;-1.10;93.50;99375.36;103265;1257;109096;-76
2023/12/10 05:43:40;;;;;;;30.50;20.10;;;;;;;-1.13;93.56;99376.05;103077;1257;138107;-77
2023/12/10 05:46:08;;;;;;;31.80;19.10;;;;;;;-1.19;93.40;99384.94;103192;1260;96981;-76
2023/12/10 05:48:35;;;;;;;33.60;20.20;;;;;;;-1.26;93.47;99386.46;102982;1257;137642;-76
2023/12/10 05:51:03;;;;;;;32.80;19.30;;;;;;;-1.33;93.43;99393.42;103222;1257;96342;-76
2023/12/10 05:53:32;;;;;;;29.70;19.40;;;;;;;-1.39;93.43;99409.45;102448;1258;1002773;-76
2023/12/10 05:55:59;;;;;;;32.40;18.60;;;;;;;-1.44;93.88;99405.68;103150;1257;138695;-76
2023/12/10 05:58:27;;;;;;;31.80;18.80;;;;;;;-1.47;93.86;99414.86;103214;1257;96462;-77
2023/12/10 06:00:55;;;;;;;29.10;18.00;;;;;;;-1.51;93.81;99416.39;103077;1259;138252;-75
2023/12/10 06:03:24;;;;;;;30.50;18.40;;;;;;;-1.53;93.97;99422.88;103158;1257;96501;-75
2023/12/10 06:05:51;;;;;;;29.50;19.40;;;;;;;-1.57;93.97;99417.41;101700;1257;1002540;-77
2023/12/10 06:08:18;;;;;;;29.40;18.60;;;;;;;-1.61;94.34;99429.16;102325;1257;1003806;-76
2023/12/10 06:10:45;;;;;;;30.80;18.80;;;;;;;-1.67;94.15;99437.13;102442;1257;1015804;-76
2023/12/10 06:13:14;;;;;;;30.40;19.70;;;;;;;-1.72;94.45;99428.77;102995;1258;140143;-76
2023/12/10 06:15:41;;;;;;;29.30;18.30;;;;;;;-1.75;94.44;99434.05;103173;1260;96518;-76
2023/12/10 06:18:08;;;;;;;29.90;18.50;;;;;;;-1.78;94.62;99438.81;103160;1257;110529;-76
2023/12/10 06:20:35;;;;;;;32.40;19.00;;;;;;;-1.83;94.57;99443.54;103021;1259;139032;-77
2023/12/10 06:23:02;;;;;;;29.50;18.10;;;;;;;-1.90;94.91;99451.86;103158;1258;96763;-77
2023/12/10 06:25:29;;;;;;;30.50;18.00;;;;;;;-1.93;95.22;99453.05;103087;1257;136923;-76
2023/12/10 06:27:57;;;;;;;26.00;17.20;;;;;;;-1.97;95.34;99468.36;103127;1260;96515;-76
2023/12/10 06:30:27;;;;;;;30.30;18.50;;;;;;;-1.99;95.52;99465.08;102883;1257;138156;-76
2023/12/10 06:32:54;;;;;;;34.30;19.90;;;;;;;-2.00;95.66;99464.74;103087;1258;109322;-77
2023/12/10 06:35:22;;;;;;;32.60;20.10;;;;;;;-2.01;95.69;99454.69;101693;1260;1003667;-76
2023/12/10 06:37:50;;;;;;;30.50;18.70;;;;;;;-2.04;96.02;99458.92;102320;1257;1005227;-77
2023/12/10 06:40:17;;;;;;;36.40;19.50;;;;;;;-2.07;95.90;99447.52;103187;1256;96452;-78
2023/12/10 06:42:44;;;;;;;33.20;20.00;;;;;;;-2.07;96.00;99434.56;102997;1259;138661;-74
2023/12/10 06:45:12;;;;;;;31.10;18.80;;;;;;;-2.06;96.34;99438.83;101672;1257;1003261;-80
2023/12/10 06:47:40;;;;;;;31.90;19.70;;;;;;;-2.03;96.21;99442.08;103189;1260;97016;-76
2023/12/10 06:50:09;;;;;;;32.50;19.50;;;;;;;-2.01;96.34;99447.54;102272;1260;1003415;-78
2023/12/10 06:52:36;;;;;;;33.80;19.30;;;;;;;-1.95;96.31;99450.13;103206;1256;96354;-79
2023/12/10 06:55:03;;;;;;;32.20;19.40;;;;;;;-1.92;96.26;99444.70;102235;1257;1002925;-76
2023/12/10 06:57:29;;;;;;;31.30;19.20;;;;;;;-1.88;96.18;99444.89;103139;1258;106161;-75
2023/12/10 06:59:56;;;;;;;35.10;20.10;;;;;;;-1.87;96.28;99442.16;103189;1258;96482;-76
2023/12/10 07:02:23;;;;;;;33.90;20.60;;;;;;;-1.85;96.15;99442.34;103084;1260;138062;-82
2023/12/10 07:04:50;;;;;;;32.20;19.90;;;;;;;-1.83;96.06;99449.33;103130;1259;96464;-81
2023/12/10 07:07:17;;;;;;;36.00;20.60;;;;;;;-1.82;96.05;99444.90;103093;1256;138204;-81
2023/12/10 07:09:44;;;;;;;34.70;20.40;;;;;;;-1.80;96.06;99452.08;103147;1257;107612;-76
2023/12/10 07:12:11;;;;;;;38.70;21.70;;;;;;;-1.78;96.11;99452.10;102343;1260;1002777;-76
2023/12/10 07:14:38;;;;;;;38.00;21.70;;;;;;;-1.76;96.15;99447.00;103035;1257;138720;-85
2023/12/10 07:17:05;;;;;;;34.60;21.20;;;;;;;-1.75;95.85;99448.88;103046;1260;97149;-79
2023/12/10 07:19:32;;;;;;;37.90;21.50;;;;;;;-1.73;95.85;99452.45;103054;1256;139070;-77
2023/12/10 07:21:59;;;;;;;35.10;20.90;;;;;;;-1.71;95.86;99451.27;103233;1260;107858;-80
2023/12/10 07:24:26;;;;;;;39.50;23.00;;;;;;;-1.67;95.70;99452.81;102313;1259;1003439;-76
2023/12/10 07:26:53;;;;;;;38.90;22.70;;;;;;;-1.64;95.63;99443.95;102431;1255;1002530;-76
2023/12/10 07:29:19;;;;;;;40.70;24.30;;;;;;;-1.66;95.62;99452.98;102434;1257;1003007;-77
2023/12/10 07:31:48;;;;;;;41.10;23.50;;;;;;;-1.71;95.42;99460.48;103069;1258;137858;-74
2023/12/10 07:34:15;;;;;;;40.60;22.70;;;;;;;-1.74;95.36;99466.42;102371;1257;1002586;-73
2023/12/10 07:36:42;;;;;;;41.50;22.80;;;;;;;-1.75;95.57;99473.92;102310;1260;1002931;-75
2023/12/10 07:39:09;;;;;;;40.70;22.40;;;;;;;-1.75;95.54;99479.21;102369;1256;1002684;-83
2023/12/10 07:41:36;;;;;;;38.50;22.20;;;;;;;-1.73;95.62;99479.89;103139;1260;96489;-74
2023/12/10 07:44:03;;;;;;;39.60;23.30;;;;;;;-1.71;95.51;99479.90;103034;1257;139000;-72
2023/12/10 07:46:30;;;;;;;44.80;25.40;;;;;;;-1.70;95.53;99481.61;103160;1256;106713;-74
2023/12/10 07:48:57;;;;;;;43.60;25.80;;;;;;;-1.69;95.49;99492.01;102173;1257;1003064;-73
2023/12/10 07:51:24;;;;;;;43.30;24.40;;;;;;;-1.73;95.24;99495.06;102242;1257;1003491;-75
2023/12/10 07:53:51;;;;;;;41.10;23.70;;;;;;;-1.74;95.34;99500.34;103244;1257;96574;-74
2023/12/10 07:56:17;;;;;;;38.50;21.90;;;;;;;-1.75;95.48;99492.67;102936;1261;138168;-75
2023/12/10 07:58:44;;;;;;;36.10;21.80;;;;;;;-1.74;95.48;99487.05;103217;1255;107828;-74
2023/12/10 08:01:12;;;;;;;47.20;24.10;;;;;;;-1.73;95.44;99489.27;103179;1259;140470;-74
2023/12/10 08:03:39;;;;;;;41.30;23.30;;;;;;;-1.72;95.35;99495.91;103147;1256;107877;-74
2023/12/10 08:06:07;;;;;;;37.80;23.60;;;;;;;-1.72;95.48;99502.21;103162;1256;96465;-75
2023/12/10 08:08:33;;;;;;;43.50;25.90;;;;;;;-1.70;95.02;99506.15;103106;1257;138841;-75
2023/12/10 08:11:03;;;;;;;40.70;25.00;;;;;;;-1.68;95.32;99502.75;102389;1256;1003096;-74
2023/12/10 08:13:30;;;;;;;43.00;25.30;;;;;;;-1.69;95.43;99519.45;103043;1257;137925;-76
2023/12/10 08:15:57;;;;;;;43.30;24.30;;;;;;;-1.68;95.28;99515.88;103179;1257;106854;-75
2023/12/10 08:18:24;;;;;;;40.30;23.60;;;;;;;-1.68;95.10;99502.76;102963;1259;138464;-74
2023/12/10 08:20:51;;;;;;;45.20;24.20;;;;;;;-1.66;95.23;99505.83;101672;1259;1003355;-74
2023/12/10 08:23:18;;;;;;;40.50;24.40;;;;;;;-1.65;95.18;99500.88;103109;1257;107500;-75
2023/12/10 08:25:45;;;;;;;38.20;23.00;;;;;;;-1.63;95.03;99505.16;103060;1256;138382;-75
2023/12/10 08:28:12;;;;;;;43.70;24.80;;;;;;;-1.59;94.99;99505.20;103081;1259;106907;-75
2023/12/10 08:30:39;;;;;;;41.40;23.40;;;;;;;-1.54;95.14;99500.27;103046;1256;138031;-74
2023/12/10 08:33:06;;;;;;;41.40;24.80;;;;;;;-1.51;94.66;99497.89;103066;1259;108939;-76
2023/12/10 08:35:34;;;;;;;44.00;25.70;;;;;;;-1.48;94.53;99495.85;102335;1257;1003174;-74
2023/12/10 08:38:00;;;;;;;45.10;26.60;;;;;;;-1.45;94.30;99489.03;103121;1256;139090;-74
2023/12/10 08:40:28;;;;;;;48.10;25.50;;;;;;;-1.44;94.17;99483.93;102251;1257;1003232;-74
2023/12/10 08:42:55;;;;;;;44.10;24.50;;;;;;;-1.41;94.09;99484.82;102295;1260;1003746;-73
2023/12/10 08:45:22;;;;;;;42.30;23.90;;;;;;;-1.41;93.54;99481.23;102403;1259;1002737;-73
2023/12/10 08:47:49;;;;;;;41.40;23.70;;;;;;;-1.37;93.45;99481.41;103131;1259;107979;-73
2023/12/10 08:50:16;;;;;;;37.40;23.00;;;;;;;-1.34;93.29;99481.59;102971;1256;140075;-73
2023/12/10 08:52:43;;;;;;;39.40;24.70;;;;;;;-1.28;93.11;99479.05;102377;1257;1003816;-73
2023/12/10 08:55:12;;;;;;;41.50;24.90;;;;;;;-1.22;92.64;99480.45;102229;1256;1002848;-73
2023/12/10 08:57:38;;;;;;;43.80;27.30;;;;;;;-1.17;92.57;99483.01;103200;1257;110478;-75
2023/12/10 09:00:08;;;;;;;43.60;25.30;;;;;;;-1.18;92.03;99491.20;102346;1255;1002702;-74
2023/12/10 09:02:45;;;;;;;41.10;24.80;;;;;;;-1.19;91.94;99490.85;103295;1257;96453;-74
2023/12/10 09:05:12;;;;;;;40.70;24.80;;;;;;;-1.18;92.25;99487.95;102403;1255;1002463;-73
2023/12/10 09:07:39;;;;;;;41.20;24.70;;;;;;;-1.17;92.27;99490.35;103065;1256;140481;-75
2023/12/10 09:10:06;;;;;;;41.30;25.60;;;;;;;-1.14;92.24;99492.39;103175;1259;109668;-74
2023/12/10 09:12:39;;;;;;;46.90;27.20;;;;;;;-1.12;92.10;99488.64;103084;1260;139637;-72
2023/12/10 09:15:08;;;;;;;46.40;27.30;;;;;;;-1.08;92.16;99489.67;103064;1257;97694;-73
2023/12/10 09:17:34;;;;;;;41.90;26.60;;;;;;;-1.07;92.04;99497.71;103126;1259;106659;-73
2023/12/10 09:20:01;;;;;;;49.40;28.40;;;;;;;-1.07;91.38;99499.59;103054;1259;139654;-73
2023/12/10 09:22:28;;;;;;;49.00;28.80;;;;;;;-1.10;91.16;99503.14;102418;1256;1004179;-74
2023/12/10 09:24:56;;;;;;;51.90;30.30;;;;;;;-1.13;91.18;99492.05;102998;1260;138103;-71
2023/12/10 09:27:23;;;;;;;49.80;29.40;;;;;;;-1.17;91.20;99486.60;101645;1256;1003163;-73
2023/12/10 09:29:50;;;;;;;49.80;29.40;;;;;;;-1.21;91.32;99488.63;103086;1256;108487;-73
2023/12/10 09:32:20;;;;;;;50.80;29.70;;;;;;;-1.22;91.36;99485.56;102594;1257;1003099;-73
2023/12/10 09:34:47;;;;;;;44.80;28.40;;;;;;;-1.23;91.15;99485.91;103147;1257;109543;-73
2023/12/10 09:37:15;;;;;;;50.50;29.50;;;;;;;-1.23;91.48;99473.28;102988;1259;138966;-73
2023/12/10 09:39:44;;;;;;;49.60;29.70;;;;;;;-1.18;91.73;99478.73;103109;1259;96489;-74
2023/12/10 09:42:12;;;;;;;49.40;29.20;;;;;;;-1.13;91.50;99480.97;103101;1256;107160;-73
2023/12/10 09:44:39;;;;;;;53.40;30.50;;;;;;;-1.11;91.36;99482.16;103920;1256;138709;-72
2023/12/10 09:47:10;;;;;;;50.30;29.90;;;;;;;-1.08;91.38;99487.98;103159;1258;109498;-73
2023/12/10 09:49:39;;;;;;;53.10;32.00;;;;;;;-1.05;91.05;99485.27;102318;1257;1003289;-73
2023/12/10 09:52:07;;;;;;;59.40;34.60;;;;;;;-1.06;90.68;99481.86;103151;1257;96699;-74
2023/12/10 09:54:34;;;;;;;58.60;34.60;;;;;;;-1.05;91.05;99482.54;103055;1257;137735;-73
2023/12/10 09:57:01;;;;;;;57.00;31.60;;;;;;;-1.05;91.10;99483.73;103111;1256;96330;-73
2023/12/10 09:59:28;;;;;;;55.60;31.40;;;;;;;-1.05;90.75;99485.79;103034;1257;109901;-73
2023/12/10 10:01:55;;;;;;;56.90;31.80;;;;;;;-1.02;90.99;99482.20;103057;1257;138964;-74
2023/12/10 10:04:22;;;;;;;51.60;31.10;;;;;;;-0.96;91.04;99483.73;103235;1259;96973;-74
2023/12/10 10:06:49;;;;;;;56.40;30.20;;;;;;;-0.94;90.75;99483.56;103043;1257;138624;-74
2023/12/10 10:09:16;;;;;;;49.90;30.70;;;;;;;-0.86;90.78;99484.45;103131;1257;96561;-73
2023/12/10 10:11:58;;;;;;;54.80;33.20;;;;;;;-0.81;90.39;99492.30;103166;1259;110452;-73
2023/12/10 10:14:25;;;;;;;56.20;34.20;;;;;;;-0.79;90.28;99483.09;102987;1256;137906;-74
2023/12/10 10:16:53;;;;;;;56.10;34.60;;;;;;;-0.75;90.50;99482.40;101642;1256;1002894;-74
2023/12/10 10:19:20;;;;;;;59.90;35.80;;;;;;;-0.72;90.46;99490.10;102277;1257;1003814;-74
2023/12/10 10:21:47;;;;;;;58.60;34.40;;;;;;;-0.73;89.96;99484.80;103153;1256;96424;-73
2023/12/10 10:24:14;;;;;;;54.20;31.90;;;;;;;-0.71;90.25;99485.32;103150;1259;109355;-73
2023/12/10 10:26:45;;;;;;;50.10;30.30;;;;;;;-0.68;90.17;99482.77;103073;1259;107695;-73
2023/12/10 10:29:12;;;;;;;48.20;29.70;;;;;;;-0.66;90.15;99477.30;103033;1256;96498;-74
2023/12/10 10:31:39;;;;;;;49.50;29.90;;;;;;;-0.64;89.81;99469.45;103031;1256;138226;-74
2023/12/10 10:34:09;;;;;;;48.70;30.00;;;;;;;-0.60;89.47;99470.12;103082;1256;96481;-74
2023/12/10 10:36:36;;;;;;;53.70;32.70;;;;;;;-0.57;89.38;99468.58;102995;1256;137675;-73
2023/12/10 10:39:03;;;;;;;58.40;34.40;;;;;;;-0.57;89.06;99468.92;103096;1256;107306;-75
2023/12/10 10:41:31;;;;;;;56.30;34.10;;;;;;;-0.57;89.33;99458.16;103140;1256;96743;-74
2023/12/10 10:43:58;;;;;;;54.20;33.50;;;;;;;-0.55;89.35;99465.67;103061;1257;137649;-74
2023/12/10 10:46:26;;;;;;;50.70;31.30;;;;;;;-0.57;89.14;99463.12;102392;1259;1003148;-74
2023/12/10 10:48:54;;;;;;;48.80;29.90;;;;;;;-0.57;89.04;99453.05;102933;1260;139270;-74
2023/12/10 10:51:23;;;;;;;49.00;29.20;;;;;;;-0.58;89.04;99450.82;103087;1256;106649;-77
2023/12/10 10:53:52;;;;;;;46.40;28.40;;;;;;;-0.56;88.93;99449.63;103092;1259;96482;-77
2023/12/10 10:56:19;;;;;;;47.10;29.60;;;;;;;-0.54;88.77;99445.39;103027;1256;137883;-76
2023/12/10 10:58:46;;;;;;;53.50;33.20;;;;;;;-0.48;89.29;99450.33;103164;1259;96447;-76
2023/12/10 11:01:41;;;;;;;49.80;31.30;;;;;;;-0.41;89.30;99453.20;102281;1257;1002892;-75
2023/12/10 11:04:12;;;;;;;52.10;32.20;;;;;;;-0.39;88.54;99455.60;103130;1257;106812;-69